Edmonton/Morinville (Mike's Field)

METAR CZVL TAF CZVL
6 °C
°C
-
°C
59m
Età
08:58:56
LT
07:58
UTC
0 ft

6.000

12.000

18.000

24.000

30.000

BKN 20.000
BKN 22.000
VFR
<?= Yii::t('app', 'Wind direction') ?> <?= Yii::t('app', 'of'); ?>
250°
08:09
Alba
49%
Umidità
Taglio del vento
Chiuso/Neve
Raggio visivo RWY
Condizione della RWY
Visibilità verticale
Visibilità minima
CAVOK
Tendenza
Correzione
Rapporto speciale
29,55 inHg
QNH
METAR CZVL 070700Z AUTO 25011G16KT 9SM BKN200 BKN220 06/M04 A2955 RMK SLP028
Copertura con squarci
11 kt
11 kt
00:00
VFR
15 kt
01:00
VFR
15 kt
02:00
VFR
15 kt
03:00
VFR
15 kt
04:00
VFR
15 kt
05:00
VFR
15 kt
06:00
VFR
15 kt
9 mi
Vista
20.000 ft
Base nuvolosa
11-16 kt
Vento
metar-taf.com/CMN6

Metar-Taf.com

Decodificatore visivo

Noi e le terze parti seguiamo il tuo comportamento su internet con i cookie. Se continui, riteniamo che tu sia d'accordo con la nostra Politica sui cookie.